Time;durP1;ratioP1;P1;durP2;ratioP2;P2;SDS_P1;SDS_P2;PMS_P1;PMS_P2;Temp;Humidity;BMP_temperature;BMP_pressure;BME280_temperature;BME280_humidity;BME280_pressure;Samples;Min_cycle;Max_cycle;Signal;HPM_P1;HPM_P2
2022/07/18 00:00:01;;;;;;;4.15;1.77;;;14.30;72.30;;;;;;4973912;28;20215;-76
2022/07/18 00:02:26;;;;;;;1.63;1.45;;;14.20;72.20;;;;;;4973732;28;20180;-76
2022/07/18 00:04:52;;;;;;;3.05;1.35;;;14.20;71.70;;;;;;4975515;28;20204;-76
2022/07/18 00:07:18;;;;;;;1.63;1.30;;;14.20;71.60;;;;;;4974051;28;20231;-76
2022/07/18 00:09:43;;;;;;;2.00;1.65;;;14.10;71.50;;;;;;4973971;28;20185;-76
2022/07/18 00:12:11;;;;;;;2.17;1.70;;;14.00;73.00;;;;;;4975151;28;20180;-76
2022/07/18 00:14:37;;;;;;;1.70;1.60;;;14.00;72.90;;;;;;4974336;28;20258;-76
2022/07/18 00:17:05;;;;;;;2.13;1.63;;;14.00;73.30;;;;;;4974014;28;20204;-76
2022/07/18 00:19:30;;;;;;;3.55;1.58;;;13.90;72.70;;;;;;4973894;28;20181;-76
2022/07/18 00:21:56;;;;;;;3.22;1.20;;;14.00;72.30;;;;;;4973808;28;20185;-76
2022/07/18 00:24:22;;;;;;;2.03;1.38;;;14.00;72.60;;;;;;4973423;28;20185;-76
2022/07/18 00:26:47;;;;;;;5.72;1.80;;;14.00;73.00;;;;;;4974491;28;20231;-76
2022/07/18 00:29:13;;;;;;;2.30;1.60;;;13.90;73.60;;;;;;4973820;28;20181;-76
2022/07/18 00:35:00;;;;;;;3.00;1.67;;;13.80;74.10;;;;;;4974577;28;20231;-76
2022/07/18 00:37:26;;;;;;;1.70;1.40;;;13.80;73.70;;;;;;4973509;28;20224;-76
2022/07/18 00:39:51;;;;;;;1.98;1.40;;;13.90;74.70;;;;;;4973374;28;20200;-76
2022/07/18 00:42:17;;;;;;;1.42;1.33;;;13.90;74.10;;;;;;4973981;28;20184;-76
2022/07/18 00:44:42;;;;;;;2.53;1.60;;;13.90;74.40;;;;;;4974601;28;20197;-76
2022/07/18 00:47:08;;;;;;;2.97;1.70;;;13.80;74.50;;;;;;4974566;28;20597;-76
2022/07/18 00:49:34;;;;;;;4.55;1.60;;;13.70;74.90;;;;;;4974519;28;20551;-76
2022/07/18 00:51:59;;;;;;;2.63;1.55;;;13.60;75.70;;;;;;4973069;28;20238;-76
2022/07/18 00:54:25;;;;;;;1.70;1.58;;;13.60;76.00;;;;;;4973297;28;20189;-76
2022/07/18 00:56:51;;;;;;;1.15;1.10;;;13.60;76.00;;;;;;4973271;28;20575;-76
2022/07/18 00:59:17;;;;;;;5.70;1.42;;;13.50;75.80;;;;;;4974183;28;20201;-76
2022/07/18 01:01:43;;;;;;;1.90;1.38;;;13.50;75.60;;;;;;4974377;28;20178;-76
2022/07/18 01:04:10;;;;;;;3.22;1.40;;;13.60;75.50;;;;;;4973907;28;20192;-76
2022/07/18 01:06:36;;;;;;;2.10;1.50;;;13.50;75.40;;;;;;4972722;28;20214;-76
2022/07/18 01:09:02;;;;;;;2.80;1.80;;;13.50;75.80;;;;;;4972836;28;20184;-76
2022/07/18 01:11:28;;;;;;;3.38;1.55;;;13.30;76.50;;;;;;4973406;28;20177;-76
2022/07/18 01:13:54;;;;;;;2.45;1.30;;;13.30;76.80;;;;;;4973079;28;20187;-76
2022/07/18 01:16:20;;;;;;;1.55;1.40;;;13.30;77.00;;;;;;4973850;28;20271;-76
2022/07/18 01:18:47;;;;;;;3.60;1.58;;;13.30;77.50;;;;;;4973146;28;20173;-76
2022/07/18 01:21:12;;;;;;;2.65;1.60;;;13.30;78.20;;;;;;4972723;28;20272;-76
2022/07/18 01:23:38;;;;;;;3.30;1.83;;;13.20;78.30;;;;;;4972934;28;20271;-76
2022/07/18 01:26:04;;;;;;;4.28;1.67;;;13.20;78.90;;;;;;4972430;28;20192;-76
2022/07/18 01:28:30;;;;;;;3.20;1.65;;;12.90;80.20;;;;;;4972689;28;20205;-76
2022/07/18 01:30:55;;;;;;;2.90;1.73;;;12.90;80.80;;;;;;4972512;28;20187;-75
2022/07/18 01:33:21;;;;;;;2.95;1.80;;;12.80;81.70;;;;;;4972775;28;20181;-75
2022/07/18 01:35:47;;;;;;;2.40;1.73;;;12.80;81.00;;;;;;4973179;28;20556;-76
2022/07/18 01:38:12;;;;;;;1.58;1.40;;;12.80;80.20;;;;;;4973487;28;20212;-76
2022/07/18 01:40:38;;;;;;;1.63;1.50;;;12.90;79.70;;;;;;4974212;28;20173;-76
2022/07/18 01:43:04;;;;;;;3.10;1.48;;;12.90;79.80;;;;;;4973406;28;20185;-76
2022/07/18 01:45:29;;;;;;;2.00;1.50;;;12.90;80.30;;;;;;4972218;28;20224;-76
2022/07/18 01:47:55;;;;;;;2.35;1.38;;;12.90;80.60;;;;;;4972599;28;20177;-76
2022/07/18 01:50:20;;;;;;;1.70;1.48;;;12.80;80.90;;;;;;4972572;28;20180;-76
2022/07/18 01:52:46;;;;;;;5.47;1.80;;;12.70;81.60;;;;;;4972247;28;20181;-76
2022/07/18 01:55:12;;;;;;;3.60;1.60;;;12.80;81.60;;;;;;4972068;28;20635;-76
2022/07/18 01:57:38;;;;;;;3.85;1.48;;;12.70;80.90;;;;;;4973747;28;20205;-76
2022/07/18 02:00:09;;;;;;;3.33;1.60;;;12.70;81.20;;;;;;4972302;28;20177;-76
2022/07/18 02:02:35;;;;;;;2.75;1.55;;;12.60;81.20;;;;;;4972000;28;20268;-76
2022/07/18 02:05:00;;;;;;;4.05;1.48;;;12.60;81.30;;;;;;4971885;28;20239;-76
2022/07/18 02:07:37;;;;;;;1.85;1.42;;;12.70;81.30;;;;;;4971988;28;20181;-76
2022/07/18 02:10:13;;;;;;;2.10;1.60;;;12.60;81.90;;;;;;4973390;28;20169;-76
2022/07/18 02:12:39;;;;;;;2.30;1.80;;;12.70;82.20;;;;;;4973928;28;20218;-76
2022/07/18 02:15:06;;;;;;;2.13;1.83;;;12.70;82.60;;;;;;4972091;28;20202;-76
2022/07/18 02:17:33;;;;;;;3.92;1.70;;;12.50;83.70;;;;;;4971682;28;20212;-76
2022/07/18 02:19:58;;;;;;;1.45;1.40;;;12.40;85.00;;;;;;4972086;28;20184;-76
2022/07/18 02:22:24;;;;;;;3.08;1.73;;;12.40;84.40;;;;;;4972601;28;20181;-76
2022/07/18 02:24:51;;;;;;;1.75;1.65;;;12.40;83.80;;;;;;4971864;28;20235;-76
2022/07/18 02:27:17;;;;;;;5.32;1.77;;;12.40;83.40;;;;;;4971588;28;20189;-76
2022/07/18 02:29:43;;;;;;;2.67;1.63;;;12.50;83.60;;;;;;4971628;28;20268;-76
2022/07/18 02:32:08;;;;;;;4.03;1.77;;;12.50;84.10;;;;;;4971589;28;20326;-76
2022/07/18 02:34:34;;;;;;;3.20;1.73;;;12.40;84.50;;;;;;4971436;28;20338;-76
2022/07/18 02:37:00;;;;;;;3.08;1.50;;;12.40;84.60;;;;;;4971406;28;20197;-76
2022/07/18 02:39:25;;;;;;;1.67;1.58;;;12.40;84.90;;;;;;4972686;28;20181;-76
2022/07/18 02:41:51;;;;;;;7.38;1.95;;;12.50;84.90;;;;;;4971758;28;20177;-76
2022/07/18 02:44:17;;;;;;;2.67;2.00;;;12.40;85.20;;;;;;4971554;28;20185;-76
2022/07/18 02:46:43;;;;;;;7.95;1.95;;;12.50;85.20;;;;;;4972180;28;20184;-76
2022/07/18 02:49:08;;;;;;;2.85;1.50;;;12.50;85.60;;;;;;4971368;28;20208;-76
2022/07/18 02:51:34;;;;;;;6.20;1.50;;;12.40;85.90;;;;;;4971283;28;20177;-76
2022/07/18 02:54:00;;;;;;;1.80;1.42;;;12.40;86.30;;;;;;4972067;28;20181;-76
2022/07/18 02:56:25;;;;;;;2.45;1.50;;;12.40;86.00;;;;;;4971310;28;20205;-76
2022/07/18 02:58:51;;;;;;;2.05;1.50;;;12.40;85.90;;;;;;4972598;28;20184;-76
2022/07/18 03:01:17;;;;;;;3.30;1.73;;;12.30;86.40;;;;;;4971632;28;20207;-76
2022/07/18 03:03:42;;;;;;;3.17;1.50;;;12.30;86.60;;;;;;4971978;28;20601;-76
2022/07/18 03:06:08;;;;;;;2.88;1.67;;;12.20;86.80;;;;;;4971866;28;20287;-76
2022/07/18 03:08:34;;;;;;;5.18;2.00;;;12.20;87.80;;;;;;4971497;28;20628;-76
2022/07/18 03:10:59;;;;;;;3.05;1.63;;;12.20;88.70;;;;;;4971063;28;20184;-76
2022/07/18 03:13:25;;;;;;;4.85;1.60;;;12.20;88.90;;;;;;4970924;28;20212;-76
2022/07/18 03:15:50;;;;;;;2.65;1.60;;;12.10;89.40;;;;;;4971176;28;20204;-76
2022/07/18 03:18:17;;;;;;;2.53;1.55;;;12.10;90.00;;;;;;4972545;28;20655;-76
2022/07/18 03:20:43;;;;;;;2.20;1.60;;;12.00;90.30;;;;;;4971213;28;20647;-76
2022/07/18 03:23:09;;;;;;;6.15;1.88;;;12.00;90.30;;;;;;4970794;28;20181;-76
2022/07/18 03:25:35;;;;;;;4.32;1.60;;;12.00;90.40;;;;;;4971963;28;20196;-76
2022/07/18 03:28:01;;;;;;;2.50;1.70;;;11.70;91.20;;;;;;4970999;28;20283;-76
2022/07/18 03:30:27;;;;;;;2.08;1.70;;;11.70;91.40;;;;;;4971943;28;20173;-76
2022/07/18 03:32:52;;;;;;;3.22;1.73;;;11.80;91.40;;;;;;4970993;28;20187;-76
2022/07/18 03:35:18;;;;;;;5.70;1.50;;;11.70;91.60;;;;;;4970913;28;20616;-76
2022/07/18 03:37:44;;;;;;;4.22;1.80;;;11.70;91.50;;;;;;4970549;28;20216;-76
2022/07/18 03:40:10;;;;;;;1.98;1.80;;;11.70;91.90;;;;;;4972041;28;20177;-76
2022/07/18 03:42:40;;;;;;;5.00;1.70;;;11.70;92.30;;;;;;4970538;28;20226;-76
2022/07/18 03:45:07;;;;;;;2.83;1.65;;;11.70;92.30;;;;;;4970462;28;20250;-76
2022/07/18 03:47:33;;;;;;;1.67;1.40;;;11.70;92.10;;;;;;4970536;28;20185;-76
2022/07/18 03:49:59;;;;;;;2.25;1.80;;;11.70;92.10;;;;;;4971897;28;20708;-76
2022/07/18 03:52:24;;;;;;;1.98;1.40;;;11.80;91.80;;;;;;4971326;28;20176;-76
2022/07/18 03:54:50;;;;;;;2.20;1.63;;;11.90;91.80;;;;;;4970685;28;20212;-76
2022/07/18 03:57:15;;;;;;;3.67;1.70;;;11.90;91.70;;;;;;4971602;28;20578;-76
2022/07/18 03:59:41;;;;;;;1.98;1.33;;;11.90;91.80;;;;;;4970360;28;20177;-76
2022/07/18 04:02:07;;;;;;;2.05;1.33;;;12.00;91.50;;;;;;4970368;28;20234;-76
2022/07/18 04:04:32;;;;;;;2.15;1.50;;;12.20;91.40;;;;;;4970268;28;20278;-76
2022/07/18 04:06:59;;;;;;;3.22;1.70;;;12.30;91.20;;;;;;4970269;28;20550;-76
2022/07/18 04:09:27;;;;;;;3.35;1.70;;;12.20;91.10;;;;;;4970607;28;20294;-76
2022/07/18 04:11:53;;;;;;;4.32;1.70;;;12.30;90.80;;;;;;4970218;28;20200;-76
2022/07/18 04:14:19;;;;;;;2.97;1.90;;;12.30;90.90;;;;;;4970234;28;20185;-76
2022/07/18 04:16:44;;;;;;;1.50;1.40;;;12.20;90.90;;;;;;4970989;28;20215;-76
2022/07/18 04:19:10;;;;;;;7.18;2.03;;;12.30;90.70;;;;;;4970121;28;20181;-76
2022/07/18 04:21:36;;;;;;;8.90;1.95;;;12.30;91.00;;;;;;4970106;28;20181;-76
2022/07/18 04:24:01;;;;;;;1.92;1.67;;;12.40;91.20;;;;;;4971003;28;20230;-76
2022/07/18 04:26:27;;;;;;;2.00;1.60;;;12.50;91.00;;;;;;4970344;28;20197;-76
2022/07/18 04:29:31;;;;;;;5.45;1.63;;;12.60;91.00;;;;;;4970185;28;20363;-76
2022/07/18 04:32:00;;;;;;;6.22;1.73;;;12.50;91.20;;;;;;4971035;28;20234;-76
2022/07/18 04:34:25;;;;;;;5.57;1.52;;;12.50;91.80;;;;;;4970244;28;20655;-76
2022/07/18 04:36:51;;;;;;;3.35;1.63;;;12.60;92.00;;;;;;4970104;28;20204;-76
2022/07/18 04:39:16;;;;;;;3.60;1.75;;;12.70;92.10;;;;;;4970400;28;20215;-76
2022/07/18 04:41:43;;;;;;;8.85;1.80;;;12.80;91.90;;;;;;4970163;28;20185;-76
2022/07/18 04:44:09;;;;;;;7.45;1.95;;;12.80;92.40;;;;;;4970663;28;20181;-76
2022/07/18 04:46:35;;;;;;;3.15;1.48;;;12.80;92.30;;;;;;4972495;28;20216;-76
2022/07/18 04:49:01;;;;;;;1.92;1.73;;;13.00;94.60;;;;;;4975053;28;20192;-76
2022/07/18 04:51:26;;;;;;;3.67;1.88;;;13.10;92.90;;;;;;5011228;28;20212;-76
2022/07/18 04:53:54;;;;;;;2.40;1.60;;;13.20;91.90;;;;;;5058985;28;20695;-76
2022/07/18 04:56:22;;;;;;;9.80;1.75;;;13.20;90.80;;;;;;5047950;28;20227;-76
2022/07/18 04:58:48;;;;;;;6.15;1.83;;;13.30;90.40;;;;;;5021188;28;20176;-76
2022/07/18 05:01:13;;;;;;;5.65;1.90;;;13.40;90.50;;;;;;5084598;28;20176;-76
2022/07/18 05:03:39;;;;;;;3.28;1.75;;;13.50;90.30;;;;;;5095087;28;20176;-76
2022/07/18 05:06:05;;;;;;;5.03;2.05;;;13.60;90.40;;;;;;5095376;28;20201;-76
2022/07/18 05:08:31;;;;;;;4.18;1.88;;;13.80;90.50;;;;;;5095022;28;20237;-76
2022/07/18 05:10:56;;;;;;;5.10;1.65;;;13.80;89.30;;;;;;5095255;28;20188;-76
2022/07/18 05:13:22;;;;;;;3.42;1.75;;;14.00;88.80;;;;;;5096154;28;20567;-76
2022/07/18 05:15:53;;;;;;;5.28;1.70;;;14.10;88.90;;;;;;5083559;28;20204;-77
2022/07/18 05:18:18;;;;;;;6.45;1.75;;;14.30;87.50;;;;;;5006749;28;20198;-76
2022/07/18 05:20:44;;;;;;;6.50;2.08;;;14.30;87.10;;;;;;5011625;28;20183;-76
2022/07/18 05:23:10;;;;;;;12.75;2.70;;;14.40;86.90;;;;;;5011716;28;20176;-76
2022/07/18 05:25:35;;;;;;;5.97;2.10;;;14.50;86.20;;;;;;5012079;28;20196;-76
2022/07/18 05:28:01;;;;;;;6.63;2.20;;;14.60;86.30;;;;;;5008621;28;20219;-76
2022/07/18 05:30:27;;;;;;;13.32;2.10;;;14.80;86.30;;;;;;4991909;28;20185;-76
2022/07/18 05:32:53;;;;;;;5.13;1.98;;;14.90;84.70;;;;;;4992313;28;20215;-76
2022/07/18 05:35:18;;;;;;;8.30;1.83;;;15.10;84.00;;;;;;4991872;28;20235;-76
2022/07/18 05:37:44;;;;;;;11.75;2.25;;;15.30;83.70;;;;;;4992136;28;20239;-76
2022/07/18 05:40:12;;;;;;;10.90;2.33;;;15.40;83.40;;;;;;4993253;28;20212;-76
2022/07/18 05:42:38;;;;;;;11.40;2.47;;;15.60;82.90;;;;;;4991851;28;20176;-76
2022/07/18 05:45:05;;;;;;;7.80;1.85;;;15.70;83.00;;;;;;4991663;28;20231;-76
2022/07/18 05:47:31;;;;;;;3.70;1.70;;;15.80;85.50;;;;;;4991653;28;20292;-76
2022/07/18 05:49:56;;;;;;;6.65;1.95;;;15.90;86.40;;;;;;4993632;28;20710;-76
2022/07/18 05:52:22;;;;;;;8.40;2.08;;;16.10;86.90;;;;;;4993077;28;20198;-76
2022/07/18 05:54:47;;;;;;;3.30;1.73;;;16.20;85.30;;;;;;4991789;28;20260;-76
2022/07/18 05:57:13;;;;;;;7.32;2.08;;;16.30;85.40;;;;;;4992291;28;20207;-76
2022/07/18 05:59:38;;;;;;;7.30;1.80;;;16.20;84.10;;;;;;4991794;28;20179;-76
2022/07/18 06:02:04;;;;;;;6.53;2.00;;;16.30;84.10;;;;;;5010538;28;20183;-76
2022/07/18 06:04:30;;;;;;;5.45;1.95;;;16.50;84.00;;;;;;5002214;28;20184;-76
2022/07/18 06:06:55;;;;;;;3.80;1.60;;;16.70;83.00;;;;;;4991419;28;20184;-76
2022/07/18 06:09:21;;;;;;;4.50;1.50;;;16.90;81.20;;;;;;5029542;28;20184;-76
2022/07/18 06:11:46;;;;;;;7.57;2.10;;;17.00;79.90;;;;;;5093842;28;20643;-76
2022/07/18 06:14:12;;;;;;;10.85;2.30;;;17.10;78.50;;;;;;5093609;28;20192;-76
2022/07/18 06:16:38;;;;;;;3.65;2.13;;;17.20;78.10;;;;;;5094524;28;20223;-76
2022/07/18 06:19:03;;;;;;;1.77;1.40;;;17.30;77.90;;;;;;5072676;28;20216;-76
2022/07/18 06:21:29;;;;;;;5.30;1.63;;;17.60;77.40;;;;;;4992080;28;20583;-76
2022/07/18 06:23:54;;;;;;;5.15;1.92;;;17.80;75.60;;;;;;4992151;28;20241;-76
2022/07/18 06:26:20;;;;;;;4.30;1.98;;;17.90;75.30;;;;;;4991059;28;20196;-76
2022/07/18 06:28:46;;;;;;;9.10;1.60;;;18.20;74.70;;;;;;4998507;28;20548;-77
2022/07/18 06:31:14;;;;;;;11.55;2.28;;;18.50;73.40;;;;;;5093819;28;20208;-76
2022/07/18 06:33:41;;;;;;;9.57;1.80;;;18.80;73.80;;;;;;5091489;28;20208;-76
2022/07/18 06:36:06;;;;;;;5.57;1.73;;;19.20;72.10;;;;;;4993114;28;20245;-76
2022/07/18 06:38:32;;;;;;;6.63;1.98;;;19.90;70.90;;;;;;4992067;28;20608;-76
2022/07/18 06:40:58;;;;;;;3.55;1.85;;;20.50;68.80;;;;;;5089501;28;20191;-76
2022/07/18 06:43:23;;;;;;;5.00;1.90;;;21.30;65.80;;;;;;5093511;28;20180;-76
2022/07/18 06:45:51;;;;;;;3.13;1.80;;;22.00;60.40;;;;;;5001728;28;20598;-76
2022/07/18 06:48:18;;;;;;;8.20;1.75;;;22.70;57.50;;;;;;4991889;28;20180;-76
2022/07/18 06:50:44;;;;;;;9.02;2.10;;;23.30;55.50;;;;;;5078013;28;20191;-76
2022/07/18 06:53:10;;;;;;;7.10;1.67;;;23.70;54.00;;;;;;5076466;28;20173;-76
2022/07/18 06:55:35;;;;;;;10.13;1.90;;;23.90;52.50;;;;;;5092158;28;20208;-77
2022/07/18 06:58:01;;;;;;;12.82;2.38;;;24.00;52.80;;;;;;5092934;28;20208;-76
2022/07/18 07:00:27;;;;;;;15.80;2.22;;;23.90;55.30;;;;;;5021576;28;20180;-76
2022/07/18 07:02:52;;;;;;;6.35;2.08;;;23.40;55.80;;;;;;4990545;28;20212;-76
2022/07/18 07:05:20;;;;;;;10.38;1.90;;;23.00;55.00;;;;;;4991413;28;20199;-76
2022/07/18 07:07:47;;;;;;;6.90;1.92;;;22.60;57.30;;;;;;4990734;28;20189;-76
2022/07/18 07:10:14;;;;;;;6.25;1.80;;;22.40;56.60;;;;;;5048580;28;20212;-76
2022/07/18 07:12:41;;;;;;;5.97;2.03;;;22.10;56.50;;;;;;5093118;28;20617;-76
2022/07/18 07:15:08;;;;;;;11.32;2.22;;;22.00;56.50;;;;;;5091957;28;20295;-76
2022/07/18 07:17:33;;;;;;;13.30;2.47;;;21.90;54.80;;;;;;5092844;28;20358;-76
2022/07/18 07:19:59;;;;;;;6.47;1.70;;;21.80;56.60;;;;;;5045259;28;20646;-76
2022/07/18 07:22:25;;;;;;;8.38;1.95;;;21.90;54.70;;;;;;4991947;28;20657;-76
2022/07/18 07:24:51;;;;;;;6.22;1.80;;;21.90;54.30;;;;;;5030422;28;20205;-76
2022/07/18 07:27:16;;;;;;;5.50;2.00;;;22.00;53.00;;;;;;5092498;28;20196;-76
2022/07/18 07:29:43;;;;;;;4.80;1.65;;;22.00;53.30;;;;;;5092129;28;20629;-76
2022/07/18 07:32:09;;;;;;;13.23;2.30;;;22.10;52.00;;;;;;5093646;28;20177;-78
2022/07/18 07:34:35;;;;;;;4.38;1.73;;;22.20;52.20;;;;;;5091507;28;20295;-76
2022/07/18 07:37:00;;;;;;;3.47;1.58;;;22.30;52.30;;;;;;5092174;28;20222;-76
2022/07/18 07:39:27;;;;;;;5.90;1.98;;;22.40;52.30;;;;;;5091024;28;20180;-76
2022/07/18 07:41:52;;;;;;;4.47;1.80;;;22.60;52.20;;;;;;5092549;28;20195;-76
2022/07/18 07:44:18;;;;;;;8.10;1.90;;;22.60;50.80;;;;;;5091222;28;20640;-76
2022/07/18 07:46:44;;;;;;;5.60;1.80;;;22.70;51.00;;;;;;5092341;28;20184;-77
2022/07/18 07:49:09;;;;;;;7.38;1.80;;;22.70;50.40;;;;;;5089692;28;20184;-76
2022/07/18 07:51:35;;;;;;;4.47;1.67;;;22.80;49.30;;;;;;4989920;28;20187;-76
2022/07/18 07:54:00;;;;;;;2.42;1.80;;;22.90;48.50;;;;;;4990267;28;20682;-77
2022/07/18 07:56:26;;;;;;;2.33;1.40;;;23.00;48.90;;;;;;4990754;28;20207;-76
2022/07/18 07:58:52;;;;;;;1.83;1.60;;;23.10;49.20;;;;;;4990689;28;20191;-76
2022/07/18 08:01:19;;;;;;;2.58;1.70;;;23.20;48.30;;;;;;4990672;28;20278;-76
2022/07/18 08:03:48;;;;;;;4.35;1.65;;;23.40;48.30;;;;;;4990209;28;20190;-76
2022/07/18 08:06:14;;;;;;;6.63;2.00;;;23.50;48.50;;;;;;5076028;28;20204;-76
2022/07/18 08:08:40;;;;;;;5.68;1.60;;;23.60;46.60;;;;;;5093280;28;20165;-76
2022/07/18 08:11:06;;;;;;;2.70;1.80;;;23.70;46.90;;;;;;5012545;28;20181;-76
2022/07/18 08:13:31;;;;;;;2.55;1.70;;;23.80;46.00;;;;;;4991192;28;20187;-76
2022/07/18 08:15:57;;;;;;;2.33;1.55;;;23.80;44.90;;;;;;5061820;28;20571;-76
2022/07/18 08:18:23;;;;;;;2.38;1.52;;;23.80;45.40;;;;;;5093083;28;20303;-76
2022/07/18 08:20:48;;;;;;;3.03;1.30;;;23.80;44.10;;;;;;5093445;28;20639;-76
2022/07/18 08:23:16;;;;;;;4.20;1.60;;;23.90;44.20;;;;;;5097053;28;20176;-76
2022/07/18 08:25:44;;;;;;;2.95;1.60;;;24.00;44.50;;;;;;5093957;28;20292;-76
2022/07/18 08:28:10;;;;;;;5.68;1.60;;;24.10;43.10;;;;;;5095950;28;20283;-76
2022/07/18 08:30:37;;;;;;;4.07;1.73;;;24.20;44.10;;;;;;5095424;28;20212;-76
2022/07/18 08:33:03;;;;;;;1.58;1.48;;;24.30;44.30;;;;;;5096881;28;20254;-76
2022/07/18 08:35:33;;;;;;;2.33;1.40;;;24.30;46.50;;;;;;5048576;28;20204;-76
2022/07/18 08:38:01;;;;;;;3.22;1.52;;;24.40;44.50;;;;;;4992782;28;20204;-76
2022/07/18 08:40:26;;;;;;;3.63;1.73;;;24.50;43.30;;;;;;4993441;28;20180;-76
2022/07/18 08:42:56;;;;;;;2.58;1.30;;;24.60;42.20;;;;;;4992579;28;20314;-76
2022/07/18 08:45:24;;;;;;;2.30;1.60;;;24.70;42.60;;;;;;4993817;28;20200;-76
2022/07/18 08:47:51;;;;;;;4.75;1.73;;;24.90;41.90;;;;;;4993851;28;20184;-76
2022/07/18 08:50:17;;;;;;;2.83;1.60;;;24.90;40.50;;;;;;4993112;28;20695;-76
2022/07/18 08:52:43;;;;;;;3.17;1.80;;;25.00;40.60;;;;;;4992504;28;20258;-76
2022/07/18 08:55:10;;;;;;;3.38;1.65;;;25.10;40.00;;;;;;4992646;28;20211;-76
2022/07/18 08:57:35;;;;;;;4.80;1.60;;;25.20;40.30;;;;;;4993905;28;20208;-76
2022/07/18 09:00:07;;;;;;;3.33;1.58;;;25.40;40.60;;;;;;4993259;28;20180;-76
2022/07/18 09:02:32;;;;;;;2.78;1.55;;;25.60;38.50;;;;;;4992725;28;20703;-76
2022/07/18 09:05:01;;;;;;;2.33;1.48;;;25.70;39.20;;;;;;5010844;28;20217;-76
2022/07/18 09:07:31;;;;;;;5.25;1.70;;;25.70;37.80;;;;;;5096694;28;20165;-79
2022/07/18 09:09:59;;;;;;;3.95;1.60;;;25.70;38.50;;;;;;5079568;28;20650;-76
2022/07/18 09:12:27;;;;;;;2.47;1.60;;;25.80;37.80;;;;;;4992216;28;20556;-76
2022/07/18 09:14:53;;;;;;;3.05;1.50;;;25.80;38.60;;;;;;5004572;28;20193;-77
2022/07/18 09:17:19;;;;;;;3.70;1.48;;;26.00;37.90;;;;;;5096044;28;20271;-76
2022/07/18 09:19:57;;;;;;;6.97;1.90;;;26.10;36.60;;;;;;5094651;28;20176;-76
2022/07/18 09:22:25;;;;;;;4.63;1.60;;;26.20;39.70;;;;;;5096077;28;20188;-77
2022/07/18 09:25:00;;;;;;;3.33;1.60;;;26.40;37.10;;;;;;5094802;28;20197;-76
2022/07/18 09:27:32;;;;;;;4.05;2.03;;;26.40;35.90;;;;;;5094720;28;20195;-81
2022/07/18 09:30:18;;;;;;;2.50;1.50;;;26.50;37.10;;;;;;5094664;28;20173;-77
2022/07/18 09:32:47;;;;;;;2.58;1.70;;;26.60;36.00;;;;;;5094034;28;20184;-76
2022/07/18 09:35:26;;;;;;;3.60;1.70;;;26.80;37.80;;;;;;5074094;28;20266;-76
2022/07/18 09:37:58;;;;;;;5.57;1.98;;;26.90;39.10;;;;;;4993438;28;20694;-76
2022/07/18 09:40:32;;;;;;;2.83;1.70;;;27.00;37.50;;;;;;5018214;28;20291;-77
2022/07/18 09:43:07;;;;;;;3.30;1.80;;;27.10;36.00;;;;;;5095617;28;20201;-76
2022/07/18 09:45:35;;;;;;;6.07;2.42;;;27.00;35.40;;;;;;5094090;28;20228;-76
2022/07/18 09:48:03;;;;;;;2.25;1.55;;;27.10;37.60;;;;;;5094678;28;20185;-76
2022/07/18 09:50:41;;;;;;;3.42;1.50;;;27.00;35.90;;;;;;5066337;28;20196;-76
2022/07/18 09:53:15;;;;;;;2.70;1.30;;;27.10;36.20;;;;;;4991737;28;20634;-76
2022/07/18 09:55:44;;;;;;;3.60;1.50;;;27.10;35.10;;;;;;4991727;28;20738;-76
2022/07/18 09:58:11;;;;;;;2.05;1.20;;;27.00;34.80;;;;;;4991535;28;20629;-76
2022/07/18 10:00:40;;;;;;;1.92;1.48;;;26.90;34.90;;;;;;4992137;28;20184;-76
2022/07/18 10:03:07;;;;;;;6.85;1.95;;;27.10;36.40;;;;;;4992300;28;20524;-76
2022/07/18 10:05:36;;;;;;;2.67;1.60;;;27.30;36.30;;;;;;5018482;28;20562;-76
2022/07/18 10:08:24;;;;;;;2.47;1.40;;;27.40;35.80;;;;;;5095022;28;20200;-76
2022/07/18 10:10:52;;;;;;;3.47;1.50;;;27.40;35.10;;;;;;5093699;28;20173;-76
2022/07/18 10:13:20;;;;;;;2.05;1.30;;;27.50;36.50;;;;;;5094198;28;20230;-76
2022/07/18 10:15:47;;;;;;;2.65;1.35;;;27.50;35.60;;;;;;5060960;28;20619;-76
2022/07/18 10:18:17;;;;;;;3.38;1.42;;;27.50;35.30;;;;;;4991521;28;20285;-76
2022/07/18 10:21:08;;;;;;;6.00;1.50;;;27.50;35.50;;;;;;4992536;28;20527;-77
2022/07/18 10:23:46;;;;;;;1.77;1.50;;;27.60;35.40;;;;;;4992075;28;20549;-76
2022/07/18 10:26:25;;;;;;;2.67;2.13;;;27.60;34.50;;;;;;4993691;28;20196;-76
2022/07/18 10:29:00;;;;;;;4.20;1.60;;;27.60;35.70;;;;;;4995118;28;20200;-77
2022/07/18 10:31:39;;;;;;;2.85;1.65;;;27.70;34.60;;;;;;5036542;28;20226;-76
2022/07/18 10:34:08;;;;;;;4.15;1.30;;;27.80;34.90;;;;;;4992449;28;20192;-76
2022/07/18 10:36:33;;;;;;;2.70;1.38;;;27.80;34.10;;;;;;5051690;28;20236;-76
2022/07/18 10:39:09;;;;;;;2.38;1.27;;;27.90;34.60;;;;;;5093450;28;20215;-76
2022/07/18 10:41:41;;;;;;;1.52;1.42;;;27.80;33.80;;;;;;5094258;28;20165;-76
2022/07/18 10:44:24;;;;;;;2.03;1.70;;;27.80;33.80;;;;;;5093733;28;20575;-76
2022/07/18 10:47:03;;;;;;;4.88;1.50;;;27.70;34.30;;;;;;5082556;28;20184;-76
2022/07/18 10:49:47;;;;;;;7.45;1.63;;;27.70;34.50;;;;;;5094571;28;20658;-76
2022/07/18 10:52:25;;;;;;;4.35;1.40;;;27.70;34.20;;;;;;5007620;28;20215;-76
2022/07/18 10:55:21;;;;;;;2.22;1.63;;;27.80;34.50;;;;;;5068842;28;20228;-77
2022/07/18 10:57:49;;;;;;;3.30;1.40;;;27.90;34.40;;;;;;5060946;28;20695;-76
2022/07/18 11:00:28;;;;;;;2.53;1.40;;;28.00;34.30;;;;;;5008121;28;20177;-76
2022/07/18 11:03:00;;;;;;;4.20;1.50;;;28.10;34.90;;;;;;5094261;28;20218;-76
2022/07/18 11:05:26;;;;;;;9.52;1.80;;;28.20;33.40;;;;;;5087993;28;20200;-76
2022/07/18 11:07:57;;;;;;;2.67;1.58;;;28.20;34.00;;;;;;4991507;28;20176;-76
2022/07/18 11:10:41;;;;;;;1.50;1.40;;;28.30;34.00;;;;;;4993199;28;20663;-76
2022/07/18 11:13:28;;;;;;;2.05;1.50;;;28.20;32.80;;;;;;5009425;28;20188;-76
2022/07/18 11:16:02;;;;;;;2.67;1.52;;;28.10;32.70;;;;;;5012793;28;20205;-76
2022/07/18 11:18:27;;;;;;;5.95;1.65;;;28.10;33.30;;;;;;5093769;28;20188;-76
2022/07/18 11:20:53;;;;;;;4.35;1.55;;;28.20;33.60;;;;;;5092509;28;20184;-77
2022/07/18 11:23:27;;;;;;;5.70;1.33;;;28.20;32.40;;;;;;5092760;28;20180;-76
2022/07/18 11:25:56;;;;;;;3.80;1.58;;;28.20;32.80;;;;;;5091590;28;20216;-76
2022/07/18 11:28:22;;;;;;;11.02;1.83;;;28.20;32.70;;;;;;5093805;28;20188;-76
2022/07/18 11:31:08;;;;;;;2.25;1.50;;;28.10;32.50;;;;;;5078527;28;20192;-76
2022/07/18 11:33:37;;;;;;;3.42;1.30;;;28.30;33.10;;;;;;5085751;28;20231;-76
2022/07/18 11:36:07;;;;;;;6.18;1.40;;;28.40;32.30;;;;;;5068912;28;20227;-76
2022/07/18 11:38:34;;;;;;;6.50;1.77;;;28.40;32.40;;;;;;4989958;28;20200;-76
2022/07/18 11:40:59;;;;;;;1.70;1.60;;;28.60;33.30;;;;;;5035957;28;20226;-77
2022/07/18 11:43:26;;;;;;;1.52;1.40;;;28.80;32.30;;;;;;4990674;28;20180;-76
2022/07/18 11:46:04;;;;;;;4.05;1.42;;;28.90;32.40;;;;;;4986450;28;20211;-77
2022/07/18 11:48:31;;;;;;;7.45;1.88;;;29.00;32.30;;;;;;5092120;28;20657;-76
2022/07/18 11:50:56;;;;;;;2.38;1.38;;;29.00;31.70;;;;;;5092300;28;20185;-77
2022/07/18 11:53:22;;;;;;;5.63;1.42;;;29.00;32.00;;;;;;5014127;28;20278;-77
2022/07/18 11:55:48;;;;;;;3.58;1.50;;;29.00;31.80;;;;;;4992174;28;20238;-77
2022/07/18 11:58:15;;;;;;;2.17;1.38;;;29.10;32.30;;;;;;4994414;28;20280;-76
2022/07/18 12:00:42;;;;;;;1.48;1.15;;;29.10;32.00;;;;;;4995549;28;20179;-76
2022/07/18 12:03:16;;;;;;;4.93;1.50;;;29.10;31.50;;;;;;5097635;28;20179;-76
2022/07/18 12:05:50;;;;;;;4.43;1.73;;;29.10;32.00;;;;;;5009386;28;20270;-77
2022/07/18 12:08:34;;;;;;;1.60;1.38;;;29.10;33.30;;;;;;5020216;28;20176;-77
2022/07/18 12:11:11;;;;;;;5.85;1.60;;;29.30;33.20;;;;;;5094644;28;20179;-77
2022/07/18 12:13:55;;;;;;;4.60;1.40;;;29.40;34.70;;;;;;5015919;28;20179;-77
2022/07/18 12:16:40;;;;;;;3.05;1.50;;;29.60;31.90;;;;;;5018553;28;20207;-75
2022/07/18 12:19:11;;;;;;;2.55;1.30;;;29.70;31.50;;;;;;5095883;28;20176;-75
2022/07/18 12:21:57;;;;;;;4.18;1.70;;;29.60;30.90;;;;;;5053482;28;20270;-75
2022/07/18 12:24:29;;;;;;;1.45;1.27;;;29.70;31.60;;;;;;5071317;28;20621;-75
2022/07/18 12:27:20;;;;;;;2.88;1.40;;;29.60;31.90;;;;;;5039358;28;20180;-74
2022/07/18 12:30:04;;;;;;;3.47;1.30;;;29.90;31.90;;;;;;5096322;28;20176;-75
2022/07/18 12:32:52;;;;;;;15.57;1.88;;;29.90;31.80;;;;;;5095894;28;20165;-75
2022/07/18 12:35:22;;;;;;;3.33;1.60;;;30.00;31.40;;;;;;5096734;28;20198;-75
2022/07/18 12:37:59;;;;;;;2.97;1.40;;;30.10;31.20;;;;;;5013483;28;20207;-75
2022/07/18 12:40:37;;;;;;;6.75;1.70;;;30.00;30.30;;;;;;4992771;28;20168;-75
2022/07/18 12:43:06;;;;;;;5.60;1.60;;;29.90;30.60;;;;;;4993587;28;20174;-76
2022/07/18 12:45:31;;;;;;;3.10;1.40;;;29.70;30.30;;;;;;4993298;28;20195;-75
2022/07/18 12:47:57;;;;;;;3.22;1.40;;;29.70;30.60;;;;;;5078045;28;20180;-75
2022/07/18 12:50:23;;;;;;;6.38;1.48;;;29.70;30.80;;;;;;5095887;28;20267;-74
2022/07/18 12:52:48;;;;;;;2.85;1.20;;;29.70;31.40;;;;;;5016806;28;20210;-75